Time;durP1;ratioP1;P1;durP2;ratioP2;P2;SDS_P1;SDS_P2;PMS_P1;PMS_P2;Temp;Humidity;BMP_temperature;BMP_pressure;BME280_temperature;BME280_humidity;BME280_pressure;Samples;Min_cycle;Max_cycle;Signal;HPM_P1;HPM_P2
2022/01/06 00:01:00;;;;;;;;;;;1.40;99.90;;;0.44;83.19;95238.41;10395820;28;1965;-81
2022/01/06 00:06:06;;;;;;;;;;;1.40;99.90;;;0.48;82.93;95234.28;10382785;28;1625;-76
2022/01/06 00:11:13;;;;;;;;;;;1.40;99.90;;;0.44;82.73;95249.78;10372714;28;1840;-75
2022/01/06 00:16:27;;;;;;;;;;;1.50;99.90;;;0.54;82.50;95238.69;10361233;28;1899;-77
2022/01/06 00:26:43;;;;;;;;;;;1.40;99.90;;;0.36;85.53;95250.09;10285915;28;1818;-73
2022/01/06 00:31:46;;;;;;;;;;;1.40;99.90;;;0.51;83.82;95247.09;10297116;28;1889;-73
2022/01/06 00:36:50;;;;;;;;;;;1.40;99.90;;;0.36;84.00;95251.94;10295745;28;1985;-72
2022/01/06 00:41:55;;;;;;;;;;;1.40;99.90;;;0.37;84.53;95237.69;10300941;28;1978;-73
2022/01/06 00:47:00;;;;;;;;;;;1.30;99.90;;;0.47;85.10;95243.25;10295914;28;1821;-74
2022/01/06 00:52:07;;;;;;;;;;;1.30;99.90;;;0.44;87.88;95254.28;10299348;28;1838;-74
2022/01/06 00:57:10;;;;;;;;;;;1.40;99.90;;;0.26;90.50;95261.22;10311244;28;1828;-72
2022/01/06 01:02:13;;;;;;;;;;;1.40;99.90;;;0.04;95.36;95259.22;10298893;28;1920;-73
2022/01/06 01:07:16;;;;;;;;;;;1.10;99.90;;;-0.11;99.73;95263.06;10297680;28;1952;-73
2022/01/06 01:12:19;;;;;;;;;;;0.90;99.90;;;-0.11;100.00;95263.06;10309331;28;1838;-74
2022/01/06 01:17:25;;;;;;;;;;;0.90;99.90;;;0.01;100.00;95270.25;10288701;28;1799;-73
2022/01/06 01:22:28;;;;;;;;;;;0.90;99.90;;;0.05;100.00;95268.75;10287956;28;1985;-73
2022/01/06 01:27:35;;;;;;;;;;;1.00;99.90;;;0.02;100.00;95271.88;10310789;28;1814;-74
2022/01/06 01:32:39;;;;;;;;;;;1.00;99.90;;;0.05;98.96;95287.25;10308061;28;1813;-72
2022/01/06 01:37:42;;;;;;;;;;;1.10;99.90;;;0.12;98.40;95278.22;10297452;28;2021;-71
2022/01/06 01:42:45;;;;;;;;;;;1.10;99.90;;;0.25;97.02;95278.13;10285906;28;2030;-72
2022/01/06 01:47:48;;;;;;;;;;;1.10;99.90;;;0.25;96.27;95282.56;10293077;28;2030;-73
2022/01/06 01:52:52;;;;;;;;;;;1.10;99.90;;;0.26;95.40;95292.13;10284419;28;1994;-72
2022/01/06 01:57:55;;;;;;;;;;;1.40;99.90;;;0.34;94.51;95289.19;10284424;28;1863;-73
2022/01/06 02:02:58;;;;;;;;;;;1.20;99.90;;;0.22;93.72;95298.88;10292502;28;1992;-73
2022/01/06 02:08:01;;;;;;;;;;;1.30;99.90;;;0.23;92.29;95301.28;10297255;28;2051;-73
2022/01/06 02:13:05;;;;;;;;;;;1.30;99.90;;;0.34;92.86;95302.41;10296905;28;2010;-72
2022/01/06 02:18:11;;;;;;;;;;;1.20;99.90;;;0.42;92.69;95309.22;10295805;28;1978;-73
2022/01/06 02:23:14;;;;;;;;;;;1.40;99.90;;;0.29;92.29;95304.91;10296588;28;2017;-72
2022/01/06 02:28:17;;;;;;;;;;;1.30;99.90;;;0.13;92.69;95310.78;10295042;28;1993;-71
2022/01/06 02:33:20;;;;;;;;;;;1.10;99.90;;;0.25;92.46;95312.47;10297356;28;2060;-73
2022/01/06 02:38:23;;;;;;;;;;;1.20;99.90;;;0.41;91.67;95323.47;10292159;28;1989;-73
2022/01/06 02:43:27;;;;;;;;;;;1.30;99.90;;;0.48;90.79;95319.72;10294999;28;2036;-73
2022/01/06 02:48:31;;;;;;;;;;;1.40;99.90;;;0.37;90.63;95322.28;10289999;28;1955;-73
2022/01/06 02:53:34;;;;;;;;;;;1.30;99.90;;;0.39;91.16;95326.34;10300890;28;2001;-72
2022/01/06 02:58:37;;;;;;;;;;;1.30;99.90;;;0.37;90.16;95328.38;10287517;28;1982;-72
2022/01/06 03:03:41;;;;;;;;;;;1.30;99.90;;;0.48;91.24;95325.00;10310102;28;1992;-73
2022/01/06 03:08:43;;;;;;;;;;;1.40;99.90;;;0.54;90.21;95320.69;10300587;28;2072;-72
2022/01/06 03:13:51;;;;;;;;;;;1.40;99.90;;;0.37;90.20;95327.59;10302638;28;1986;-72
2022/01/06 03:18:55;;;;;;;;;;;1.40;99.90;;;0.41;90.03;95321.63;10289704;28;2004;-72
2022/01/06 03:23:58;;;;;;;;;;;1.40;99.90;;;0.32;89.76;95330.06;10296283;28;2000;-73
2022/01/06 03:29:01;;;;;;;;;;;1.40;99.90;;;0.31;89.93;95342.47;10297505;28;1987;-73
2022/01/06 03:34:03;;;;;;;;;;;1.30;99.90;;;0.46;89.85;95350.06;10298639;28;1933;-74
2022/01/06 03:39:07;;;;;;;;;;;1.30;99.90;;;0.45;90.07;95359.03;10294802;28;1957;-74
2022/01/06 03:44:10;;;;;;;;;;;1.40;99.90;;;0.58;90.01;95350.16;10316754;28;2055;-73
2022/01/06 03:49:13;;;;;;;;;;;1.50;99.90;;;0.43;91.44;95364.53;10290681;28;1956;-73
2022/01/06 03:54:16;;;;;;;;;;;1.40;99.90;;;0.25;93.90;95357.41;10301978;28;2024;-74
2022/01/06 03:59:19;;;;;;;;;;;1.30;99.90;;;0.19;96.19;95357.44;10289899;28;1974;-71
2022/01/06 04:04:22;;;;;;;;;;;1.30;99.90;;;0.13;97.85;95368.94;10299749;28;2021;-73
2022/01/06 04:09:26;;;;;;;;;;;1.10;99.90;;;0.24;96.71;95370.81;10297520;28;1966;-72
2022/01/06 04:14:29;;;;;;;;;;;1.20;99.90;;;0.24;95.09;95376.13;10303923;28;1983;-72
2022/01/06 04:19:32;;;;;;;;;;;1.20;99.90;;;0.19;95.37;95381.25;10297256;28;2016;-72
2022/01/06 04:24:36;;;;;;;;;;;1.20;99.90;;;0.20;97.29;95374.97;10308611;28;1996;-72
2022/01/06 04:29:40;;;;;;;;;;;1.20;99.90;;;0.13;98.58;95371.56;10297302;28;1957;-72
2022/01/06 04:34:43;;;;;;;;;;;1.10;99.90;;;0.15;98.74;95377.44;10301515;28;1964;-72
2022/01/06 04:39:46;;;;;;;;;;;1.10;99.90;;;0.14;97.87;95383.75;10299745;28;1969;-71
2022/01/06 04:44:49;;;;;;;;;;;1.10;99.90;;;0.13;98.61;95390.88;10306116;28;2101;-73
2022/01/06 04:49:52;;;;;;;;;;;1.10;99.90;;;0.06;100.00;95402.50;10294027;28;1922;-73
2022/01/06 04:54:56;;;;;;;;;;;1.10;99.90;;;-0.01;100.00;95421.88;10301030;28;2015;-72
2022/01/06 05:00:00;;;;;;;;;;;0.90;99.90;;;0.05;100.00;95419.41;10317043;28;2028;-74
2022/01/06 05:05:03;;;;;;;;;;;1.00;99.90;;;0.08;100.00;95418.97;10301256;28;2052;-72
2022/01/06 05:10:06;;;;;;;;;;;1.00;99.90;;;-0.07;100.00;95428.03;10301311;28;1931;-73
2022/01/06 05:15:09;;;;;;;;;;;1.00;99.90;;;-0.01;100.00;95427.16;10300446;28;1927;-73
2022/01/06 05:20:12;;;;;;;;;;;1.00;99.90;;;0.09;100.00;95425.88;10288986;28;1977;-72
2022/01/06 05:25:16;;;;;;;;;;;1.00;99.90;;;0.08;100.00;95413.69;10299219;28;1934;-72
2022/01/06 05:30:22;;;;;;;;;;;1.00;99.90;;;-0.02;100.00;95417.63;10306867;23;1827;-79
2022/01/06 05:35:49;;;;;;;;;;;1.30;99.90;;;-0.10;100.00;95411.81;10292350;28;1763;-78
2022/01/06 05:41:08;;;;;;;;;;;1.20;99.90;;;-0.21;100.00;95407.22;10286876;28;1942;-78
2022/01/06 05:46:16;;;;;;;;;;;0.90;99.90;;;-0.22;100.00;95422.25;10288208;28;1977;-79
2022/01/06 05:51:19;;;;;;;;;;;0.80;99.90;;;-0.18;100.00;95435.84;10269254;28;1853;-78
2022/01/06 05:56:23;;;;;;;;;;;0.80;99.90;;;-0.20;100.00;95437.88;10288038;28;2180;-78
2022/01/06 06:01:26;;;;;;;;;;;0.80;99.90;;;-0.21;100.00;95458.22;10289586;28;1923;-78
2022/01/06 06:06:30;;;;;;;;;;;0.80;99.90;;;-0.25;100.00;95458.84;10278555;28;1836;-79
2022/01/06 06:11:34;;;;;;;;;;;0.70;99.90;;;-0.14;100.00;95466.09;10290776;28;1748;-79
2022/01/06 06:16:37;;;;;;;;;;;0.80;99.90;;;-0.10;100.00;95464.66;10289813;28;1848;-79
2022/01/06 06:21:41;;;;;;;;;;;0.80;99.90;;;-0.07;100.00;95467.66;10259926;28;1966;-78
2022/01/06 06:26:44;;;;;;;;;;;0.80;99.90;;;-0.03;100.00;95470.69;10327860;23;1932;-78
2022/01/06 06:31:47;;;;;;;;;;;1.00;99.90;;;-0.01;100.00;95477.38;10366612;28;1923;-80
2022/01/06 06:36:50;;;;;;;;;;;0.90;99.90;;;0.05;100.00;95472.25;10359957;28;1804;-78
2022/01/06 06:41:53;;;;;;;;;;;1.00;99.90;;;0.09;100.00;95481.38;10335399;28;1920;-77
2022/01/06 06:46:56;;;;;;;;;;;1.00;99.90;;;0.08;100.00;95488.50;10347166;28;1828;-78
2022/01/06 06:51:59;;;;;;;;;;;1.00;99.90;;;0.10;100.00;95493.56;10336772;28;1804;-77
2022/01/06 06:57:03;;;;;;;;;;;1.10;99.90;;;0.06;100.00;95505.56;10333444;28;1849;-77
2022/01/06 07:02:06;;;;;;;;;;;1.00;99.90;;;-0.14;100.00;95511.81;10348667;28;1910;-77
2022/01/06 07:07:10;;;;;;;;;;;0.90;99.90;;;-0.19;100.00;95522.22;10336475;28;1825;-77
2022/01/06 07:12:13;;;;;;;;;;;0.90;99.90;;;-0.34;100.00;95530.41;10329215;28;1868;-77
2022/01/06 07:17:16;;;;;;;;;;;0.80;99.90;;;-0.28;100.00;95531.41;10327476;28;1860;-76
2022/01/06 07:22:19;;;;;;;;;;;0.70;99.90;;;-0.29;100.00;95540.34;10326621;28;1977;-77
2022/01/06 07:27:22;;;;;;;;;;;0.70;99.90;;;-0.24;100.00;95553.75;10325730;28;1951;-77
2022/01/06 07:32:26;;;;;;;;;;;0.70;99.90;;;-0.36;100.00;95550.16;10327947;28;2087;-78
2022/01/06 07:37:32;;;;;;;;;;;0.60;99.90;;;-0.27;100.00;95557.59;10335704;28;2177;-77
2022/01/06 07:42:36;;;;;;;;;;;0.60;99.90;;;-0.23;100.00;95560.66;10347720;28;1916;-77
2022/01/06 07:47:54;;;;;;;;;;;0.70;99.90;;;-0.19;100.00;95555.72;10349960;28;1815;-77
2022/01/06 07:52:57;;;;;;;;;;;0.80;99.90;;;-0.11;100.00;95564.25;10340597;28;1835;-76
2022/01/06 07:58:01;;;;;;;;;;;0.80;99.90;;;-0.09;100.00;95569.31;10332013;28;1927;-77
2022/01/06 08:03:04;;;;;;;;;;;0.80;99.90;;;-0.03;100.00;95579.84;10339767;28;1969;-77
2022/01/06 08:08:07;;;;;;;;;;;0.90;99.90;;;-0.02;100.00;95578.81;10342525;28;1888;-77
2022/01/06 08:13:11;;;;;;;;;;;0.90;99.90;;;-0.03;100.00;95576.38;10348237;28;1813;-77
2022/01/06 08:18:14;;;;;;;;;;;0.90;99.90;;;-0.29;100.00;95579.97;10341620;28;1958;-78
2022/01/06 08:23:17;;;;;;;;;;;0.80;99.90;;;-0.31;100.00;95582.84;10342755;28;1989;-78
2022/01/06 08:28:21;;;;;;;;;;;0.70;99.90;;;-0.25;100.00;95583.81;10335370;28;1883;-77
2022/01/06 08:33:24;;;;;;;;;;;0.80;99.90;;;-0.10;100.00;95605.47;10342415;28;1917;-77
2022/01/06 08:38:29;;;;;;;;;;;0.70;99.90;;;0.01;100.00;95608.50;10336488;28;1814;-77
2022/01/06 08:43:32;;;;;;;;;;;0.80;99.90;;;0.18;100.00;95609.59;10344240;28;1907;-77
2022/01/06 08:48:35;;;;;;;;;;;0.90;99.90;;;0.31;100.00;95609.50;10327769;28;1907;-77
2022/01/06 08:53:38;;;;;;;;;;;1.00;99.90;;;0.33;100.00;95612.78;10339424;28;1817;-78
2022/01/06 08:58:42;;;;;;;;;;;1.10;99.90;;;0.52;100.00;95616.31;10339994;28;1805;-77
2022/01/06 09:03:44;;;;;;;;;;;1.20;99.90;;;0.63;100.00;95623.53;10349558;28;1985;-78
2022/01/06 09:08:47;;;;;;;;;;;1.40;99.90;;;0.56;100.00;95621.97;10342001;28;1864;-77
2022/01/06 09:13:51;;;;;;;;;;;1.40;99.90;;;0.40;100.00;95624.13;10337842;28;1836;-78
2022/01/06 09:18:54;;;;;;;;;;;1.40;99.90;;;0.40;100.00;95618.03;10337876;28;1868;-78
2022/01/06 09:23:59;;;;;;;;;;;1.30;99.90;;;0.32;100.00;95626.19;10340493;28;1922;-78
2022/01/06 09:29:02;;;;;;;;;;;1.30;99.90;;;0.44;100.00;95638.50;10354855;28;1877;-78
2022/01/06 09:34:05;;;;;;;;;;;1.30;99.90;;;0.71;100.00;95630.41;10353409;28;1895;-76
2022/01/06 09:39:08;;;;;;;;;;;1.50;99.90;;;0.88;99.78;95630.66;10336629;28;1830;-78
2022/01/06 09:44:12;;;;;;;;;;;1.70;99.90;;;0.68;99.75;95641.41;10362786;28;1906;-78
2022/01/06 09:49:37;;;;;;;;;;;1.60;99.90;;;0.53;99.14;95649.66;10345281;28;1861;-78
2022/01/06 09:54:40;;;;;;;;;;;1.60;99.90;;;0.87;99.16;95658.97;10341335;28;1830;-76
2022/01/06 09:59:44;;;;;;;;;;;1.60;99.90;;;1.05;97.82;95656.38;10363752;28;1825;-76
2022/01/06 10:04:48;;;;;;;;;;;1.80;99.90;;;1.23;96.31;95660.13;10361942;28;1985;-76
2022/01/06 10:09:51;;;;;;;;;;;2.00;99.90;;;1.69;94.07;95667.59;10342950;28;1951;-76
2022/01/06 10:14:55;;;;;;;;;;;2.30;99.90;;;1.93;91.91;95665.09;10353631;28;1813;-76
2022/01/06 10:19:58;;;;;;;;;;;2.60;99.90;;;2.38;91.63;95676.97;10341525;28;1912;-77
2022/01/06 10:25:02;;;;;;;;;;;2.90;99.90;;;2.53;90.56;95671.25;10320634;28;1991;-76
2022/01/06 10:30:05;;;;;;;;;;;3.10;99.90;;;1.99;90.59;95682.78;10329081;28;2296;-77
2022/01/06 10:35:08;;;;;;;;;;;3.00;99.90;;;2.22;93.06;95679.41;10359082;28;1895;-76
2022/01/06 10:40:11;;;;;;;;;;;2.90;99.90;;;2.67;90.39;95683.31;10334644;28;1896;-76
2022/01/06 10:45:17;;;;;;;;;;;3.10;99.90;;;2.69;87.24;95688.38;10339931;28;1965;-78
2022/01/06 10:50:20;;;;;;;;;;;3.40;99.90;;;2.42;89.48;95701.22;10349062;28;1917;-78
2022/01/06 10:55:25;;;;;;;;;;;3.20;99.90;;;1.89;91.54;95697.34;10332798;28;1892;-77
2022/01/06 11:00:28;;;;;;;;;;;3.00;99.90;;;1.57;93.51;95699.31;10345017;28;1955;-78
2022/01/06 11:05:31;;;;;;;;;;;2.60;99.90;;;1.59;95.47;95707.84;10355660;28;1991;-77
2022/01/06 11:10:36;;;;;;;;;;;2.50;99.90;;;1.69;94.48;95706.53;10351701;28;1790;-77
2022/01/06 11:15:40;;;;;;;;;;;2.50;99.90;;;1.54;95.00;95713.00;10335041;28;1857;-77
2022/01/06 11:20:43;;;;;;;;;;;2.50;99.90;;;1.34;96.34;95715.81;10328835;28;1976;-77
2022/01/06 11:25:46;;;;;;;;;;;2.40;99.90;;;1.41;98.72;95715.78;10329733;28;1793;-77
2022/01/06 11:30:51;;;;;;;;;;;2.30;99.90;;;1.45;97.96;95711.63;10328965;28;1813;-78
2022/01/06 11:35:54;;;;;;;;;;;2.30;99.90;;;1.74;97.94;95706.69;10319430;28;1875;-78
2022/01/06 11:40:58;;;;;;;;;;;2.30;99.90;;;1.91;96.00;95705.09;10341484;28;1980;-78
2022/01/06 11:46:01;;;;;;;;;;;2.60;99.90;;;1.77;96.62;95706.25;10320459;28;2194;-76
2022/01/06 11:51:08;;;;;;;;;;;2.60;99.90;;;1.83;97.05;95714.13;10343660;28;1903;-76
2022/01/06 11:56:11;;;;;;;;;;;2.50;99.90;;;1.57;95.62;95714.38;10326135;28;1926;-77
2022/01/06 12:01:15;;;;;;;;;;;2.50;99.90;;;1.41;96.28;95717.59;10386413;23;3667;-69
2022/01/06 12:06:19;;;;;;;;;;;2.30;99.90;;;1.26;98.54;95718.72;10402732;28;1845;-71
2022/01/06 12:11:22;;;;;;;;;;;2.20;99.90;;;1.39;98.46;95724.94;10414010;28;1806;-71
2022/01/06 12:16:25;;;;;;;;;;;2.20;99.90;;;1.32;97.36;95722.34;10425138;28;2222;-71
2022/01/06 12:21:29;;;;;;;;;;;2.20;99.90;;;1.18;97.30;95726.13;10409073;28;2222;-71
2022/01/06 12:26:32;;;;;;;;;;;2.10;99.90;;;1.06;97.07;95724.19;10410254;28;1810;-71
2022/01/06 12:31:36;;;;;;;;;;;2.00;99.90;;;0.99;98.54;95731.38;10416413;28;2093;-72
2022/01/06 12:36:42;;;;;;;;;;;1.90;99.90;;;0.79;99.13;95720.09;10410467;28;1764;-71
2022/01/06 12:41:46;;;;;;;;;;;1.80;99.90;;;0.71;100.00;95720.38;10432087;28;1983;-70
2022/01/06 12:46:48;;;;;;;;;;;1.70;99.90;;;0.84;99.93;95730.06;10403580;28;1976;-70
2022/01/06 12:51:54;;;;;;;;;;;1.70;99.90;;;1.00;99.48;95730.34;10410037;28;1911;-70
2022/01/06 12:56:56;;;;;;;;;;;1.80;99.90;;;1.04;97.22;95731.53;10407481;28;1963;-71
2022/01/06 13:01:59;;;;;;;;;;;1.90;99.90;;;1.18;95.80;95736.72;10404546;28;1971;-72
2022/01/06 13:07:02;;;;;;;;;;;1.90;99.90;;;1.08;94.84;95731.91;10398577;28;1847;-70
2022/01/06 13:12:06;;;;;;;;;;;2.00;99.90;;;0.99;94.60;95723.44;10400685;28;1820;-74
2022/01/06 13:17:09;;;;;;;;;;;2.00;99.90;;;1.12;92.06;95738.41;10403356;28;1924;-71
2022/01/06 13:22:16;;;;;;;;;;;1.90;99.90;;;1.31;90.65;95731.31;10403055;28;1997;-69
2022/01/06 13:27:19;;;;;;;;;;;2.10;99.90;;;1.47;89.26;95728.16;10396661;28;2206;-71
2022/01/06 13:32:22;;;;;;;;;;;2.30;99.90;;;1.84;89.45;95741.44;10401550;28;2210;-71
2022/01/06 13:37:25;;;;;;;;;;;2.50;99.90;;;2.14;88.22;95734.38;10398868;28;1906;-72
2022/01/06 13:42:28;;;;;;;;;;;2.80;99.90;;;1.94;87.77;95747.03;10400481;28;2056;-72
2022/01/06 13:47:33;;;;;;;;;;;2.80;99.90;;;1.71;87.16;95754.81;10412673;28;2207;-70
2022/01/06 13:52:36;;;;;;;;;;;2.70;99.90;;;1.53;87.63;95758.25;10412643;28;2154;-72
2022/01/06 13:57:39;;;;;;;;;;;2.50;99.90;;;1.74;85.94;95755.19;10426242;28;1631;-72
2022/01/06 14:02:42;;;;;;;;;;;2.50;99.90;;;1.74;87.20;95765.81;10405941;28;1914;-71
2022/01/06 14:07:45;;;;;;;;;;;2.60;99.90;;;2.31;84.96;95770.94;10401226;28;1793;-72
2022/01/06 14:12:48;;;;;;;;;;;2.80;99.90;;;2.71;84.17;95774.72;10421230;28;2016;-71
2022/01/06 14:17:51;;;;;;;;;;;3.20;99.90;;;2.91;82.09;95784.25;10408990;28;1861;-74
2022/01/06 14:22:54;;;;;;;;;;;3.50;99.90;;;3.01;81.44;95773.91;10415973;28;1918;-73
2022/01/06 14:27:57;;;;;;;;;;;3.70;99.90;;;3.39;80.66;95786.03;10426933;28;1873;-72
2022/01/06 14:33:01;;;;;;;;;;;3.90;99.90;;;3.31;79.59;95789.00;10434399;28;1903;-72
2022/01/06 14:38:04;;;;;;;;;;;4.00;99.90;;;3.10;79.78;95796.44;10450438;28;1874;-72
2022/01/06 14:43:07;;;;;;;;;;;3.90;99.90;;;2.94;80.27;95807.72;10451235;28;1891;-73
2022/01/06 14:48:10;;;;;;;;;;;3.90;99.90;;;2.74;80.96;95810.63;10443062;28;1842;-71
2022/01/06 14:53:14;;;;;;;;;;;3.60;99.90;;;2.43;81.65;95807.09;10435006;28;1868;-70
2022/01/06 14:58:16;;;;;;;;;;;3.40;99.90;;;2.39;83.64;95807.75;10432994;28;1766;-72
2022/01/06 15:03:22;;;;;;;;;;;3.40;99.90;;;2.36;83.46;95811.69;10443214;28;1899;-71
2022/01/06 15:08:30;;;;;;;;;;;3.30;99.90;;;2.09;85.77;95813.78;10446316;28;1990;-72
2022/01/06 15:13:34;;;;;;;;;;;3.10;99.90;;;1.75;84.78;95820.41;10444750;28;1753;-71
2022/01/06 15:18:37;;;;;;;;;;;2.90;99.90;;;1.61;86.92;95832.97;10426355;28;1739;-70
2022/01/06 15:23:40;;;;;;;;;;;2.80;99.90;;;1.52;87.23;95846.69;10409310;28;1903;-71
2022/01/06 15:28:53;;;;;;;;;;;2.60;99.90;;;1.55;86.52;95841.78;10401053;28;2055;-71
2022/01/06 15:33:56;;;;;;;;;;;2.60;99.90;;;1.44;86.67;95854.91;10402677;28;1933;-70
2022/01/06 15:38:59;;;;;;;;;;;2.60;99.90;;;1.38;87.99;95853.91;10402876;28;1851;-70
2022/01/06 15:44:02;;;;;;;;;;;2.40;99.90;;;1.18;88.16;95858.53;10404371;28;1922;-71
2022/01/06 15:49:06;;;;;;;;;;;2.30;99.90;;;1.04;91.31;95873.69;10399785;28;2035;-70
2022/01/06 15:54:09;;;;;;;;;;;2.30;99.90;;;0.92;90.88;95865.59;10403305;28;1992;-72
2022/01/06 15:59:12;;;;;;;;;;;2.10;99.90;;;0.84;91.63;95884.34;10397894;28;1938;-71
2022/01/06 16:09:37;;;;;;;;;;;1.90;99.90;;;1.01;92.09;95890.78;10406975;28;1850;-72
2022/01/06 16:14:40;;;;;;;;;;;1.90;99.90;;;1.03;91.41;95893.22;10413119;28;1862;-72
2022/01/06 16:19:44;;;;;;;;;;;2.00;99.90;;;0.98;91.65;95896.50;10402546;28;1828;-70
2022/01/06 16:24:47;;;;;;;;;;;2.00;99.90;;;0.97;91.54;95905.47;10404850;28;1987;-70
2022/01/06 16:29:50;;;;;;;;;;;2.00;99.90;;;1.13;90.67;95908.66;10408089;28;2006;-71
2022/01/06 16:34:53;;;;;;;;;;;2.10;99.90;;;1.33;91.13;95920.75;10417872;28;1883;-70
2022/01/06 16:39:56;;;;;;;;;;;2.20;99.90;;;1.44;90.52;95918.47;10411203;28;1835;-71
2022/01/06 16:44:59;;;;;;;;;;;2.20;99.90;;;1.51;87.93;95922.69;10418256;28;1914;-72
2022/01/06 16:50:02;;;;;;;;;;;2.40;99.90;;;1.60;89.11;95926.75;10423547;28;1954;-72
2022/01/06 16:55:06;;;;;;;;;;;2.40;99.90;;;1.68;87.46;95916.91;10431548;28;2258;-73
2022/01/06 17:00:10;;;;;;;;;;;2.50;99.90;;;1.71;87.68;95927.88;10451875;28;1706;-74
2022/01/06 17:05:15;;;;;;;;;;;2.50;99.90;;;1.73;88.04;95931.16;10450151;28;1958;-72
2022/01/06 17:10:18;;;;;;;;;;;2.60;99.90;;;1.50;90.40;95936.16;10425689;28;1765;-71
2022/01/06 17:15:21;;;;;;;;;;;2.50;99.90;;;1.27;94.87;95936.69;10408732;28;1876;-71
2022/01/06 17:20:23;;;;;;;;;;;2.30;99.90;;;1.05;97.98;95933.53;10406965;28;1884;-71
2022/01/06 17:25:27;;;;;;;;;;;2.10;99.90;;;1.04;100.00;95927.44;10405447;28;1965;-71
2022/01/06 17:30:30;;;;;;;;;;;2.00;99.90;;;1.03;100.00;95940.88;10403901;28;1926;-71
2022/01/06 17:35:34;;;;;;;;;;;1.90;99.90;;;1.04;100.00;95937.22;10405477;28;1847;-72
2022/01/06 17:40:37;;;;;;;;;;;2.00;99.90;;;0.99;100.00;95932.53;10406384;28;1873;-71
2022/01/06 17:45:40;;;;;;;;;;;2.00;99.90;;;1.02;98.42;95940.06;10390843;28;1976;-70
2022/01/06 17:50:44;;;;;;;;;;;2.00;99.90;;;1.04;95.93;95937.22;10396314;28;1987;-72
2022/01/06 17:55:47;;;;;;;;;;;1.90;99.90;;;1.02;97.63;95940.06;10403006;28;1856;-72
2022/01/06 18:00:51;;;;;;;;;;;1.90;99.90;;;1.04;97.13;95951.25;10415676;28;1888;-71
2022/01/06 18:05:59;;;;;;;;;;;2.00;99.90;;;1.02;97.26;95939.25;10403561;28;1918;-72
2022/01/06 18:11:20;;;;;;;;;;;2.00;99.90;;;1.15;95.56;95954.28;10403834;28;1906;-72
2022/01/06 18:16:23;;;;;;;;;;;2.00;99.90;;;1.05;94.08;95954.72;10402436;28;1842;-72
2022/01/06 18:21:27;;;;;;;;;;;1.90;99.90;;;0.92;95.35;95955.56;10403819;28;1924;-72
2022/01/06 18:26:30;;;;;;;;;;;1.90;99.90;;;0.80;95.81;95949.28;10401258;28;1919;-71
2022/01/06 18:31:33;;;;;;;;;;;1.90;99.90;;;0.75;96.82;95957.03;10410538;22;2116;-73
2022/01/06 18:36:37;;;;;;;;;;;1.80;99.90;;;0.72;95.71;95962.75;10398325;28;1892;-76
2022/01/06 18:41:40;;;;;;;;;;;1.80;99.90;;;0.74;95.86;95953.59;10413377;28;1848;-75
2022/01/06 18:46:44;;;;;;;;;;;1.80;99.90;;;0.78;94.34;95954.81;10395088;28;1919;-76
2022/01/06 18:51:47;;;;;;;;;;;1.80;99.90;;;0.78;94.58;95956.63;10401594;28;2219;-74
2022/01/06 18:56:50;;;;;;;;;;;1.90;99.90;;;0.76;94.62;95958.66;10396170;28;1876;-76
2022/01/06 19:01:53;;;;;;;;;;;1.80;99.90;;;0.65;94.67;95956.66;10396615;28;1840;-74
2022/01/06 19:06:57;;;;;;;;;;;1.80;99.90;;;0.45;95.15;95960.16;10408006;28;2037;-74
2022/01/06 19:12:00;;;;;;;;;;;1.60;99.90;;;0.39;95.77;95960.16;10391227;28;1857;-75
2022/01/06 19:17:03;;;;;;;;;;;1.50;99.90;;;0.29;97.35;95960.56;10401160;28;1988;-75
2022/01/06 19:22:06;;;;;;;;;;;1.40;99.90;;;0.29;96.10;95965.06;10405196;28;1866;-75
2022/01/06 19:27:10;;;;;;;;;;;1.40;99.90;;;0.31;96.50;95963.00;10403268;28;1956;-76
2022/01/06 19:32:13;;;;;;;;;;;1.50;99.90;;;0.19;96.39;95963.66;10401479;28;1813;-76
2022/01/06 19:37:16;;;;;;;;;;;1.30;99.90;;;0.11;96.43;95970.94;10401487;28;1762;-74
2022/01/06 19:42:20;;;;;;;;;;;1.40;99.90;;;0.01;97.60;95957.34;10407188;28;1822;-77
2022/01/06 19:47:22;;;;;;;;;;;1.10;99.90;;;-0.01;98.36;95960.16;10401231;28;1926;-74
2022/01/06 19:52:26;;;;;;;;;;;1.20;99.90;;;-0.16;98.75;95965.66;10402724;28;1809;-75
2022/01/06 19:57:29;;;;;;;;;;;1.10;99.90;;;-0.26;99.73;95967.84;10407255;28;1779;-74
2022/01/06 20:02:32;;;;;;;;;;;1.00;99.90;;;-0.41;99.44;95972.50;10411756;28;1797;-73
2022/01/06 20:07:35;;;;;;;;;;;0.80;99.90;;;-0.51;99.99;95982.63;10415868;28;1985;-73
2022/01/06 20:12:38;;;;;;;;;;;0.70;99.90;;;-0.56;100.00;95973.50;10410053;28;1876;-72
2022/01/06 20:17:41;;;;;;;;;;;0.70;99.90;;;-0.56;100.00;95978.78;10407735;28;1793;-72
2022/01/06 20:22:45;;;;;;;;;;;0.60;99.90;;;-0.56;100.00;95981.44;10403113;28;1908;-75
2022/01/06 20:27:49;;;;;;;;;;;0.60;99.90;;;-0.51;100.00;95983.44;10411229;28;1977;-75
2022/01/06 20:32:52;;;;;;;;;;;0.60;99.90;;;-0.47;100.00;95982.03;10411163;28;1404;-72
2022/01/06 20:37:55;;;;;;;;;;;0.70;99.90;;;-0.30;99.76;95985.13;10403553;28;1895;-75
2022/01/06 20:43:01;;;;;;;;;;;0.80;99.90;;;-0.17;98.86;95992.28;10407815;28;2083;-74
2022/01/06 20:51:16;;;;;;;;;;;0.80;99.90;;;-0.12;98.07;95995.94;10408823;28;1985;-74
2022/01/06 20:53:36;;;;;;;;;;;0.80;99.90;;;-0.01;97.41;96002.44;10410968;28;1861;-74
2022/01/06 20:58:40;;;;;;;;;;;1.00;99.90;;;0.03;96.92;95998.41;10410376;28;1907;-72
2022/01/06 21:03:43;;;;;;;;;;;1.00;99.90;;;0.11;96.62;95992.09;10409603;28;1891;-74
2022/01/06 21:08:46;;;;;;;;;;;1.10;99.90;;;0.06;96.17;95995.34;10413141;28;1849;-75
2022/01/06 21:13:50;;;;;;;;;;;1.20;99.90;;;-0.07;94.94;95998.78;10409970;28;1790;-74
2022/01/06 21:18:53;;;;;;;;;;;1.10;99.90;;;-0.25;96.01;95995.94;10409679;28;2027;-73
2022/01/06 21:23:56;;;;;;;;;;;1.00;99.90;;;-0.33;96.90;95993.44;10418103;28;1910;-73
2022/01/06 21:28:58;;;;;;;;;;;0.90;99.90;;;-0.55;97.50;95985.69;10413592;28;1798;-73
2022/01/06 21:34:02;;;;;;;;;;;0.70;99.90;;;-0.67;96.84;95982.00;10417190;28;1869;-74
2022/01/06 21:39:05;;;;;;;;;;;0.60;99.90;;;-0.82;99.28;95983.97;10406305;28;1690;-72
2022/01/06 21:44:08;;;;;;;;;;;0.50;99.90;;;-0.82;99.02;95983.97;10403763;28;1981;-72
2022/01/06 21:49:11;;;;;;;;;;;0.40;99.90;;;-0.82;98.32;95981.34;10403407;28;1841;-74
2022/01/06 21:54:14;;;;;;;;;;;0.40;99.90;;;-0.96;98.04;95977.00;10403461;28;1919;-72
2022/01/06 21:59:18;;;;;;;;;;;0.20;99.90;;;-1.05;99.78;95983.47;10402195;28;1798;-73
2022/01/06 22:04:21;;;;;;;;;;;;;;;-1.03;100.00;95979.59;10403170;28;1936;-73
2022/01/06 22:09:25;;;;;;;;;;;;;;;-1.20;100.00;95976.50;10405585;28;1787;-72
2022/01/06 22:14:28;;;;;;;;;;;0.10;99.90;;;-1.27;100.00;95975.66;10402570;28;1833;-74
2022/01/06 22:19:31;;;;;;;;;;;0.00;99.90;;;-1.24;100.00;95975.25;10399179;28;1813;-72
2022/01/06 22:24:34;;;;;;;;;;;0.00;99.90;;;-1.28;100.00;95974.00;10403708;28;1918;-72
2022/01/06 22:29:37;;;;;;;;;;;-0.10;99.90;;;-1.34;100.00;95969.50;10401617;28;1830;-73
2022/01/06 22:34:41;;;;;;;;;;;-0.10;99.90;;;-1.42;100.00;95965.19;10399178;28;1884;-73
2022/01/06 22:39:44;;;;;;;;;;;-0.20;99.90;;;-1.51;100.00;95965.56;10398913;28;1917;-72
2022/01/06 22:44:47;;;;;;;;;;;-0.20;99.90;;;-1.48;100.00;95957.25;10399014;28;1985;-74
2022/01/06 22:49:50;;;;;;;;;;;-0.30;99.90;;;-1.47;100.00;95958.88;10386277;28;1985;-75
2022/01/06 22:54:53;;;;;;;;;;;-0.20;99.90;;;-1.42;100.00;95952.00;10385946;28;1833;-75
2022/01/06 22:59:56;;;;;;;;;;;-0.20;99.90;;;-1.43;100.00;95944.31;10392536;28;1979;-71
2022/01/06 23:04:59;;;;;;;;;;;-0.30;99.90;;;-1.52;100.00;95950.75;10399480;28;1998;-72
2022/01/06 23:10:02;;;;;;;;;;;-0.20;99.90;;;-1.50;100.00;95940.81;10398236;28;1968;-72
2022/01/06 23:15:05;;;;;;;;;;;-0.20;99.90;;;-1.60;100.00;95929.81;10400080;28;1891;-72
2022/01/06 23:20:08;;;;;;;;;;;-0.20;99.90;;;-1.78;100.00;95920.59;10397946;28;1837;-72
2022/01/06 23:25:12;;;;;;;;;;;-0.40;99.90;;;-1.84;100.00;95921.34;10397913;28;1918;-71
2022/01/06 23:30:15;;;;;;;;;;;-0.50;99.90;;;-1.85;100.00;95909.16;10388799;28;1883;-71
2022/01/06 23:35:20;;;;;;;;;;;-0.60;99.90;;;-1.86;100.00;95912.81;10400357;28;1869;-72
2022/01/06 23:40:23;;;;;;;;;;;-0.60;99.90;;;-1.72;100.00;95914.53;10398358;28;1837;-71
2022/01/06 23:45:26;;;;;;;;;;;-0.50;99.90;;;-1.74;100.00;95913.09;10396260;28;1958;-71
2022/01/06 23:50:29;;;;;;;;;;;-0.50;99.90;;;-1.70;100.00;95923.06;10398042;28;1920;-73